sensor_id;sensor_type;location;lat;lon;timestamp;P1;durP1;ratioP1;P2;durP2;ratioP2
84381;SDS011;74572;51.834;5.820;2024-03-08T00:00:14;17.42;;;7.32;;
84381;SDS011;74572;51.834;5.820;2024-03-08T00:02:43;17.27;;;7.45;;
84381;SDS011;74572;51.834;5.820;2024-03-08T00:05:10;23.67;;;6.50;;
84381;SDS011;74572;51.834;5.820;2024-03-08T00:07:36;17.73;;;8.38;;
84381;SDS011;74572;51.834;5.820;2024-03-08T00:10:07;20.90;;;8.40;;
84381;SDS011;74572;51.834;5.820;2024-03-08T00:12:36;22.33;;;9.18;;
84381;SDS011;74572;51.834;5.820;2024-03-08T00:15:03;23.88;;;9.13;;
84381;SDS011;74572;51.834;5.820;2024-03-08T00:17:28;23.60;;;10.18;;
84381;SDS011;74572;51.834;5.820;2024-03-08T00:19:54;18.40;;;9.35;;
84381;SDS011;74572;51.834;5.820;2024-03-08T00:22:19;22.63;;;8.20;;
84381;SDS011;74572;51.834;5.820;2024-03-08T00:24:47;19.88;;;8.80;;
84381;SDS011;74572;51.834;5.820;2024-03-08T00:27:14;18.90;;;7.90;;
84381;SDS011;74572;51.834;5.820;2024-03-08T00:29:40;23.30;;;9.10;;
84381;SDS011;74572;51.834;5.820;2024-03-08T00:32:06;19.40;;;9.82;;
84381;SDS011;74572;51.834;5.820;2024-03-08T00:34:34;20.02;;;8.65;;
84381;SDS011;74572;51.834;5.820;2024-03-08T00:37:01;24.20;;;9.25;;
84381;SDS011;74572;51.834;5.820;2024-03-08T00:39:30;25.45;;;10.07;;
84381;SDS011;74572;51.834;5.820;2024-03-08T00:41:55;19.85;;;7.32;;
84381;SDS011;74572;51.834;5.820;2024-03-08T00:44:21;16.63;;;8.82;;
84381;SDS011;74572;51.834;5.820;2024-03-08T00:46:46;20.35;;;9.93;;
84381;SDS011;74572;51.834;5.820;2024-03-08T00:49:12;19.77;;;7.93;;
84381;SDS011;74572;51.834;5.820;2024-03-08T00:51:37;21.08;;;8.52;;
84381;SDS011;74572;51.834;5.820;2024-03-08T00:54:03;23.20;;;11.73;;
84381;SDS011;74572;51.834;5.820;2024-03-08T00:56:28;20.65;;;9.30;;
84381;SDS011;74572;51.834;5.820;2024-03-08T00:58:56;20.52;;;8.95;;
84381;SDS011;74572;51.834;5.820;2024-03-08T01:01:22;18.33;;;9.63;;
84381;SDS011;74572;51.834;5.820;2024-03-08T01:03:47;19.40;;;9.10;;
84381;SDS011;74572;51.834;5.820;2024-03-08T01:06:13;21.73;;;9.77;;
84381;SDS011;74572;51.834;5.820;2024-03-08T01:08:39;20.65;;;10.07;;
84381;SDS011;74572;51.834;5.820;2024-03-08T01:11:07;22.15;;;8.98;;
84381;SDS011;74572;51.834;5.820;2024-03-08T01:13:34;22.50;;;10.25;;
84381;SDS011;74572;51.834;5.820;2024-03-08T01:16:00;20.33;;;8.57;;
84381;SDS011;74572;51.834;5.820;2024-03-08T01:18:25;24.42;;;7.93;;
84381;SDS011;74572;51.834;5.820;2024-03-08T01:20:50;22.00;;;10.93;;
84381;SDS011;74572;51.834;5.820;2024-03-08T01:23:16;23.50;;;9.63;;
84381;SDS011;74572;51.834;5.820;2024-03-08T01:25:42;19.45;;;8.18;;
84381;SDS011;74572;51.834;5.820;2024-03-08T01:28:08;14.90;;;7.20;;
84381;SDS011;74572;51.834;5.820;2024-03-08T01:30:34;15.43;;;7.93;;
84381;SDS011;74572;51.834;5.820;2024-03-08T01:33:01;22.42;;;8.85;;
84381;SDS011;74572;51.834;5.820;2024-03-08T01:35:27;21.63;;;9.00;;
84381;SDS011;74572;51.834;5.820;2024-03-08T01:37:53;22.63;;;10.13;;
84381;SDS011;74572;51.834;5.820;2024-03-08T01:40:18;19.00;;;8.23;;
84381;SDS011;74572;51.834;5.820;2024-03-08T01:42:44;21.73;;;8.38;;
84381;SDS011;74572;51.834;5.820;2024-03-08T01:45:10;18.10;;;9.30;;
84381;SDS011;74572;51.834;5.820;2024-03-08T01:47:35;20.55;;;9.90;;
84381;SDS011;74572;51.834;5.820;2024-03-08T01:50:02;24.17;;;8.60;;
84381;SDS011;74572;51.834;5.820;2024-03-08T01:52:31;18.83;;;8.70;;
84381;SDS011;74572;51.834;5.820;2024-03-08T01:54:59;22.10;;;9.68;;
84381;SDS011;74572;51.834;5.820;2024-03-08T01:57:27;19.90;;;8.18;;
84381;SDS011;74572;51.834;5.820;2024-03-08T01:59:54;22.17;;;9.85;;
84381;SDS011;74572;51.834;5.820;2024-03-08T02:02:21;19.63;;;9.20;;
84381;SDS011;74572;51.834;5.820;2024-03-08T02:04:47;19.05;;;7.72;;
84381;SDS011;74572;51.834;5.820;2024-03-08T02:07:12;20.55;;;8.60;;
84381;SDS011;74572;51.834;5.820;2024-03-08T02:09:38;15.98;;;8.40;;
84381;SDS011;74572;51.834;5.820;2024-03-08T02:12:04;21.75;;;9.10;;
84381;SDS011;74572;51.834;5.820;2024-03-08T02:14:30;14.90;;;5.35;;
84381;SDS011;74572;51.834;5.820;2024-03-08T02:16:59;18.50;;;7.93;;
84381;SDS011;74572;51.834;5.820;2024-03-08T02:19:25;19.30;;;8.45;;
84381;SDS011;74572;51.834;5.820;2024-03-08T02:21:51;20.55;;;9.43;;
84381;SDS011;74572;51.834;5.820;2024-03-08T02:24:16;22.48;;;9.52;;
84381;SDS011;74572;51.834;5.820;2024-03-08T02:26:42;22.52;;;11.43;;
84381;SDS011;74572;51.834;5.820;2024-03-08T02:29:08;17.25;;;9.30;;
84381;SDS011;74572;51.834;5.820;2024-03-08T02:31:34;14.88;;;6.93;;
84381;SDS011;74572;51.834;5.820;2024-03-08T02:33:59;23.30;;;9.40;;
84381;SDS011;74572;51.834;5.820;2024-03-08T02:36:25;18.95;;;9.35;;
84381;SDS011;74572;51.834;5.820;2024-03-08T02:38:50;15.25;;;6.88;;
84381;SDS011;74572;51.834;5.820;2024-03-08T02:41:16;18.33;;;7.85;;
84381;SDS011;74572;51.834;5.820;2024-03-08T02:43:41;17.20;;;7.72;;
84381;SDS011;74572;51.834;5.820;2024-03-08T02:46:07;23.00;;;10.07;;
84381;SDS011;74572;51.834;5.820;2024-03-08T02:48:33;20.10;;;9.27;;
84381;SDS011;74572;51.834;5.820;2024-03-08T02:50:58;19.80;;;8.27;;
84381;SDS011;74572;51.834;5.820;2024-03-08T02:53:24;18.40;;;8.35;;
84381;SDS011;74572;51.834;5.820;2024-03-08T02:55:49;18.75;;;8.95;;
84381;SDS011;74572;51.834;5.820;2024-03-08T02:58:15;22.95;;;9.55;;
84381;SDS011;74572;51.834;5.820;2024-03-08T03:00:40;18.27;;;7.97;;
84381;SDS011;74572;51.834;5.820;2024-03-08T03:03:06;24.55;;;11.57;;
84381;SDS011;74572;51.834;5.820;2024-03-08T03:05:32;20.48;;;10.07;;
84381;SDS011;74572;51.834;5.820;2024-03-08T03:07:58;14.07;;;7.55;;
84381;SDS011;74572;51.834;5.820;2024-03-08T03:10:24;20.77;;;9.57;;
84381;SDS011;74572;51.834;5.820;2024-03-08T03:12:50;16.00;;;8.43;;
84381;SDS011;74572;51.834;5.820;2024-03-08T03:15:15;22.27;;;10.13;;
84381;SDS011;74572;51.834;5.820;2024-03-08T03:17:50;23.35;;;9.65;;
84381;SDS011;74572;51.834;5.820;2024-03-08T03:20:16;16.48;;;7.00;;
84381;SDS011;74572;51.834;5.820;2024-03-08T03:22:50;20.73;;;9.52;;
84381;SDS011;74572;51.834;5.820;2024-03-08T03:25:20;28.15;;;9.52;;
84381;SDS011;74572;51.834;5.820;2024-03-08T03:27:53;20.75;;;9.18;;
84381;SDS011;74572;51.834;5.820;2024-03-08T03:30:22;18.30;;;8.95;;
84381;SDS011;74572;51.834;5.820;2024-03-08T03:32:48;19.38;;;8.88;;
84381;SDS011;74572;51.834;5.820;2024-03-08T03:35:16;15.90;;;7.35;;
84381;SDS011;74572;51.834;5.820;2024-03-08T03:37:42;17.98;;;8.98;;
84381;SDS011;74572;51.834;5.820;2024-03-08T03:40:10;23.48;;;9.95;;
84381;SDS011;74572;51.834;5.820;2024-03-08T03:42:36;22.52;;;10.18;;
84381;SDS011;74572;51.834;5.820;2024-03-08T03:45:03;20.92;;;9.60;;
84381;SDS011;74572;51.834;5.820;2024-03-08T03:47:30;21.70;;;9.57;;
84381;SDS011;74572;51.834;5.820;2024-03-08T03:49:56;21.63;;;10.13;;
84381;SDS011;74572;51.834;5.820;2024-03-08T03:52:26;22.35;;;10.13;;
84381;SDS011;74572;51.834;5.820;2024-03-08T03:54:52;18.30;;;8.75;;
84381;SDS011;74572;51.834;5.820;2024-03-08T03:57:17;20.80;;;8.18;;
84381;SDS011;74572;51.834;5.820;2024-03-08T03:59:44;21.98;;;10.18;;
84381;SDS011;74572;51.834;5.820;2024-03-08T04:02:09;22.88;;;9.77;;
84381;SDS011;74572;51.834;5.820;2024-03-08T04:04:34;17.02;;;9.02;;
84381;SDS011;74572;51.834;5.820;2024-03-08T04:07:00;19.92;;;9.32;;
84381;SDS011;74572;51.834;5.820;2024-03-08T04:09:27;19.17;;;9.75;;
84381;SDS011;74572;51.834;5.820;2024-03-08T04:11:52;21.80;;;9.45;;
84381;SDS011;74572;51.834;5.820;2024-03-08T04:14:20;20.52;;;7.95;;
84381;SDS011;74572;51.834;5.820;2024-03-08T04:16:46;13.77;;;6.60;;
84381;SDS011;74572;51.834;5.820;2024-03-08T04:19:13;21.63;;;10.27;;
84381;SDS011;74572;51.834;5.820;2024-03-08T04:21:39;20.38;;;11.43;;
84381;SDS011;74572;51.834;5.820;2024-03-08T04:24:04;21.23;;;9.30;;
84381;SDS011;74572;51.834;5.820;2024-03-08T04:26:30;18.05;;;8.45;;
84381;SDS011;74572;51.834;5.820;2024-03-08T04:28:56;22.05;;;9.95;;
84381;SDS011;74572;51.834;5.820;2024-03-08T04:31:22;17.58;;;8.55;;
84381;SDS011;74572;51.834;5.820;2024-03-08T04:33:47;23.85;;;11.27;;
84381;SDS011;74572;51.834;5.820;2024-03-08T04:36:13;15.95;;;6.88;;
84381;SDS011;74572;51.834;5.820;2024-03-08T04:38:39;27.77;;;12.70;;
84381;SDS011;74572;51.834;5.820;2024-03-08T04:41:06;22.38;;;8.65;;
84381;SDS011;74572;51.834;5.820;2024-03-08T04:43:31;17.92;;;7.28;;
84381;SDS011;74572;51.834;5.820;2024-03-08T04:45:57;20.52;;;8.90;;
84381;SDS011;74572;51.834;5.820;2024-03-08T04:48:23;22.15;;;8.95;;
84381;SDS011;74572;51.834;5.820;2024-03-08T04:50:52;22.83;;;10.25;;
84381;SDS011;74572;51.834;5.820;2024-03-08T04:53:18;25.55;;;10.23;;
84381;SDS011;74572;51.834;5.820;2024-03-08T04:55:44;24.85;;;9.70;;
84381;SDS011;74572;51.834;5.820;2024-03-08T04:58:10;15.68;;;7.18;;
84381;SDS011;74572;51.834;5.820;2024-03-08T05:00:35;22.45;;;9.50;;
84381;SDS011;74572;51.834;5.820;2024-03-08T05:03:01;17.00;;;7.97;;
84381;SDS011;74572;51.834;5.820;2024-03-08T05:05:26;19.75;;;9.77;;
84381;SDS011;74572;51.834;5.820;2024-03-08T05:07:53;23.10;;;10.48;;
84381;SDS011;74572;51.834;5.820;2024-03-08T05:10:19;21.80;;;9.23;;
84381;SDS011;74572;51.834;5.820;2024-03-08T05:12:44;23.27;;;10.45;;
84381;SDS011;74572;51.834;5.820;2024-03-08T05:15:10;21.17;;;9.13;;
84381;SDS011;74572;51.834;5.820;2024-03-08T05:17:35;20.98;;;8.45;;
84381;SDS011;74572;51.834;5.820;2024-03-08T05:20:01;23.80;;;10.57;;
84381;SDS011;74572;51.834;5.820;2024-03-08T05:22:27;24.60;;;9.52;;
84381;SDS011;74572;51.834;5.820;2024-03-08T05:24:53;21.85;;;9.93;;
84381;SDS011;74572;51.834;5.820;2024-03-08T05:27:18;20.60;;;8.77;;
84381;SDS011;74572;51.834;5.820;2024-03-08T05:29:44;23.88;;;9.93;;
84381;SDS011;74572;51.834;5.820;2024-03-08T05:32:09;23.13;;;11.45;;
84381;SDS011;74572;51.834;5.820;2024-03-08T05:34:35;25.55;;;10.30;;
84381;SDS011;74572;51.834;5.820;2024-03-08T05:37:03;21.10;;;9.45;;
84381;SDS011;74572;51.834;5.820;2024-03-08T05:39:29;23.55;;;8.75;;
84381;SDS011;74572;51.834;5.820;2024-03-08T05:41:54;21.23;;;10.07;;
84381;SDS011;74572;51.834;5.820;2024-03-08T05:44:21;24.85;;;9.07;;
84381;SDS011;74572;51.834;5.820;2024-03-08T05:46:46;21.13;;;9.00;;
84381;SDS011;74572;51.834;5.820;2024-03-08T05:49:12;20.98;;;8.75;;
84381;SDS011;74572;51.834;5.820;2024-03-08T05:51:38;25.73;;;10.73;;
84381;SDS011;74572;51.834;5.820;2024-03-08T05:54:05;19.17;;;9.85;;
84381;SDS011;74572;51.834;5.820;2024-03-08T05:56:36;27.35;;;10.43;;
84381;SDS011;74572;51.834;5.820;2024-03-08T05:59:02;22.38;;;10.43;;
84381;SDS011;74572;51.834;5.820;2024-03-08T06:01:28;18.73;;;7.50;;
84381;SDS011;74572;51.834;5.820;2024-03-08T06:03:54;20.05;;;7.85;;
84381;SDS011;74572;51.834;5.820;2024-03-08T06:06:21;22.70;;;10.65;;
84381;SDS011;74572;51.834;5.820;2024-03-08T06:08:47;21.00;;;9.20;;
84381;SDS011;74572;51.834;5.820;2024-03-08T06:11:14;23.42;;;11.75;;
84381;SDS011;74572;51.834;5.820;2024-03-08T06:13:40;20.88;;;8.88;;
84381;SDS011;74572;51.834;5.820;2024-03-08T06:16:06;18.75;;;8.88;;
84381;SDS011;74572;51.834;5.820;2024-03-08T06:18:33;26.02;;;11.80;;
84381;SDS011;74572;51.834;5.820;2024-03-08T06:21:02;13.60;;;7.32;;
84381;SDS011;74572;51.834;5.820;2024-03-08T06:23:34;16.63;;;8.25;;
84381;SDS011;74572;51.834;5.820;2024-03-08T06:26:06;16.15;;;7.55;;
84381;SDS011;74572;51.834;5.820;2024-03-08T06:28:32;24.70;;;10.93;;
84381;SDS011;74572;51.834;5.820;2024-03-08T06:31:00;15.73;;;8.63;;
84381;SDS011;74572;51.834;5.820;2024-03-08T06:33:27;23.58;;;10.52;;
84381;SDS011;74572;51.834;5.820;2024-03-08T06:35:54;26.83;;;9.75;;
84381;SDS011;74572;51.834;5.820;2024-03-08T06:38:22;19.35;;;8.85;;
84381;SDS011;74572;51.834;5.820;2024-03-08T06:40:50;20.85;;;7.68;;
84381;SDS011;74572;51.834;5.820;2024-03-08T06:43:17;19.23;;;6.93;;
84381;SDS011;74572;51.834;5.820;2024-03-08T06:45:43;25.30;;;8.70;;
84381;SDS011;74572;51.834;5.820;2024-03-08T06:48:16;19.77;;;9.70;;
84381;SDS011;74572;51.834;5.820;2024-03-08T06:50:46;21.60;;;8.43;;
84381;SDS011;74572;51.834;5.820;2024-03-08T06:53:12;21.13;;;9.68;;
84381;SDS011;74572;51.834;5.820;2024-03-08T06:55:38;20.75;;;8.57;;
84381;SDS011;74572;51.834;5.820;2024-03-08T06:58:07;22.98;;;9.65;;
84381;SDS011;74572;51.834;5.820;2024-03-08T07:00:33;22.83;;;11.27;;
84381;SDS011;74572;51.834;5.820;2024-03-08T07:02:59;16.65;;;7.90;;
84381;SDS011;74572;51.834;5.820;2024-03-08T07:05:28;22.23;;;10.15;;
84381;SDS011;74572;51.834;5.820;2024-03-08T07:07:57;18.35;;;8.95;;
84381;SDS011;74572;51.834;5.820;2024-03-08T07:10:23;20.88;;;10.18;;
84381;SDS011;74572;51.834;5.820;2024-03-08T07:12:57;23.23;;;10.65;;
84381;SDS011;74572;51.834;5.820;2024-03-08T07:15:22;20.30;;;9.02;;
84381;SDS011;74572;51.834;5.820;2024-03-08T07:17:48;23.52;;;10.07;;
84381;SDS011;74572;51.834;5.820;2024-03-08T07:20:14;18.10;;;8.93;;
84381;SDS011;74572;51.834;5.820;2024-03-08T07:22:44;14.82;;;7.68;;
84381;SDS011;74572;51.834;5.820;2024-03-08T07:25:12;22.15;;;9.48;;
84381;SDS011;74572;51.834;5.820;2024-03-08T07:27:52;18.40;;;9.80;;
84381;SDS011;74572;51.834;5.820;2024-03-08T07:30:19;22.85;;;11.48;;
84381;SDS011;74572;51.834;5.820;2024-03-08T07:33:05;15.98;;;8.05;;
84381;SDS011;74572;51.834;5.820;2024-03-08T07:35:32;20.77;;;10.07;;
84381;SDS011;74572;51.834;5.820;2024-03-08T07:37:57;19.83;;;8.27;;
84381;SDS011;74572;51.834;5.820;2024-03-08T07:40:24;22.30;;;11.18;;
84381;SDS011;74572;51.834;5.820;2024-03-08T07:42:50;25.17;;;12.48;;
84381;SDS011;74572;51.834;5.820;2024-03-08T07:45:16;10.20;;;5.05;;
84381;SDS011;74572;51.834;5.820;2024-03-08T07:47:42;23.35;;;11.13;;
84381;SDS011;74572;51.834;5.820;2024-03-08T07:50:08;12.93;;;6.82;;
84381;SDS011;74572;51.834;5.820;2024-03-08T07:52:34;20.50;;;9.20;;
84381;SDS011;74572;51.834;5.820;2024-03-08T07:54:59;19.10;;;10.38;;
84381;SDS011;74572;51.834;5.820;2024-03-08T07:57:25;15.95;;;7.53;;
84381;SDS011;74572;51.834;5.820;2024-03-08T07:59:51;19.67;;;10.32;;
84381;SDS011;74572;51.834;5.820;2024-03-08T08:02:16;24.13;;;12.63;;
84381;SDS011;74572;51.834;5.820;2024-03-08T08:04:42;16.10;;;8.98;;
84381;SDS011;74572;51.834;5.820;2024-03-08T08:07:11;23.33;;;12.57;;
84381;SDS011;74572;51.834;5.820;2024-03-08T08:09:39;20.13;;;12.38;;
84381;SDS011;74572;51.834;5.820;2024-03-08T08:12:07;21.67;;;11.93;;
84381;SDS011;74572;51.834;5.820;2024-03-08T08:14:35;18.95;;;11.60;;
84381;SDS011;74572;51.834;5.820;2024-03-08T08:17:01;19.92;;;12.48;;
84381;SDS011;74572;51.834;5.820;2024-03-08T08:19:29;19.83;;;12.43;;
84381;SDS011;74572;51.834;5.820;2024-03-08T08:21:54;20.85;;;13.45;;
84381;SDS011;74572;51.834;5.820;2024-03-08T08:24:20;16.48;;;11.20;;
84381;SDS011;74572;51.834;5.820;2024-03-08T08:26:47;18.77;;;13.90;;
84381;SDS011;74572;51.834;5.820;2024-03-08T08:29:12;23.60;;;15.13;;
84381;SDS011;74572;51.834;5.820;2024-03-08T08:31:38;20.25;;;14.65;;
84381;SDS011;74572;51.834;5.820;2024-03-08T08:34:08;20.00;;;14.70;;
84381;SDS011;74572;51.834;5.820;2024-03-08T08:36:34;19.45;;;13.88;;
84381;SDS011;74572;51.834;5.820;2024-03-08T08:39:00;18.88;;;14.50;;
84381;SDS011;74572;51.834;5.820;2024-03-08T08:41:28;17.98;;;13.63;;
84381;SDS011;74572;51.834;5.820;2024-03-08T08:43:54;22.27;;;14.95;;
84381;SDS011;74572;51.834;5.820;2024-03-08T08:46:19;20.98;;;15.48;;
84381;SDS011;74572;51.834;5.820;2024-03-08T08:48:46;23.52;;;14.85;;
84381;SDS011;74572;51.834;5.820;2024-03-08T08:51:14;19.42;;;14.25;;
84381;SDS011;74572;51.834;5.820;2024-03-08T08:53:40;21.10;;;14.13;;
84381;SDS011;74572;51.834;5.820;2024-03-08T08:56:08;20.30;;;13.35;;
84381;SDS011;74572;51.834;5.820;2024-03-08T08:58:46;20.48;;;13.20;;
84381;SDS011;74572;51.834;5.820;2024-03-08T09:01:13;21.63;;;14.30;;
84381;SDS011;74572;51.834;5.820;2024-03-08T09:03:38;21.20;;;14.05;;
84381;SDS011;74572;51.834;5.820;2024-03-08T09:06:06;19.02;;;13.57;;
84381;SDS011;74572;51.834;5.820;2024-03-08T09:11:03;20.13;;;13.43;;
84381;SDS011;74572;51.834;5.820;2024-03-08T09:13:30;20.50;;;13.52;;
84381;SDS011;74572;51.834;5.820;2024-03-08T09:15:55;20.13;;;13.90;;
84381;SDS011;74572;51.834;5.820;2024-03-08T09:18:21;20.95;;;13.98;;
84381;SDS011;74572;51.834;5.820;2024-03-08T09:20:46;19.13;;;14.70;;
84381;SDS011;74572;51.834;5.820;2024-03-08T09:23:12;19.58;;;14.18;;
84381;SDS011;74572;51.834;5.820;2024-03-08T09:25:38;19.73;;;13.05;;
84381;SDS011;74572;51.834;5.820;2024-03-08T09:28:03;19.05;;;14.05;;
84381;SDS011;74572;51.834;5.820;2024-03-08T09:30:30;17.90;;;12.73;;
84381;SDS011;74572;51.834;5.820;2024-03-08T09:32:56;17.63;;;11.48;;
84381;SDS011;74572;51.834;5.820;2024-03-08T09:35:21;19.33;;;13.40;;
84381;SDS011;74572;51.834;5.820;2024-03-08T09:37:47;19.20;;;13.55;;
84381;SDS011;74572;51.834;5.820;2024-03-08T09:40:16;21.13;;;13.30;;
84381;SDS011;74572;51.834;5.820;2024-03-08T09:42:45;18.25;;;12.48;;
84381;SDS011;74572;51.834;5.820;2024-03-08T09:45:13;16.48;;;10.73;;
84381;SDS011;74572;51.834;5.820;2024-03-08T09:47:41;16.55;;;12.18;;
84381;SDS011;74572;51.834;5.820;2024-03-08T09:50:08;19.45;;;13.63;;
84381;SDS011;74572;51.834;5.820;2024-03-08T09:52:47;19.65;;;13.35;;
84381;SDS011;74572;51.834;5.820;2024-03-08T09:55:14;18.23;;;12.75;;
84381;SDS011;74572;51.834;5.820;2024-03-08T09:57:45;19.30;;;13.50;;
84381;SDS011;74572;51.834;5.820;2024-03-08T10:00:35;20.25;;;13.27;;
84381;SDS011;74572;51.834;5.820;2024-03-08T10:03:02;17.55;;;12.93;;
84381;SDS011;74572;51.834;5.820;2024-03-08T10:05:28;18.10;;;12.18;;
84381;SDS011;74572;51.834;5.820;2024-03-08T10:07:57;18.92;;;12.73;;
84381;SDS011;74572;51.834;5.820;2024-03-08T10:10:23;16.65;;;12.38;;
84381;SDS011;74572;51.834;5.820;2024-03-08T10:12:49;18.63;;;12.27;;
84381;SDS011;74572;51.834;5.820;2024-03-08T10:15:15;19.65;;;14.30;;
84381;SDS011;74572;51.834;5.820;2024-03-08T10:17:41;18.55;;;12.70;;
84381;SDS011;74572;51.834;5.820;2024-03-08T10:20:18;19.13;;;12.27;;
84381;SDS011;74572;51.834;5.820;2024-03-08T10:22:44;18.88;;;12.77;;
84381;SDS011;74572;51.834;5.820;2024-03-08T10:25:13;17.27;;;12.80;;
84381;SDS011;74572;51.834;5.820;2024-03-08T10:27:39;18.88;;;13.02;;
84381;SDS011;74572;51.834;5.820;2024-03-08T10:30:06;18.58;;;12.75;;
84381;SDS011;74572;51.834;5.820;2024-03-08T10:32:44;17.35;;;12.48;;
84381;SDS011;74572;51.834;5.820;2024-03-08T10:35:10;17.77;;;13.40;;
84381;SDS011;74572;51.834;5.820;2024-03-08T10:37:44;19.83;;;12.68;;
84381;SDS011;74572;51.834;5.820;2024-03-08T10:40:18;19.80;;;12.50;;
84381;SDS011;74572;51.834;5.820;2024-03-08T10:43:02;19.02;;;12.80;;
84381;SDS011;74572;51.834;5.820;2024-03-08T10:45:36;18.58;;;12.73;;
84381;SDS011;74572;51.834;5.820;2024-03-08T10:50:47;16.98;;;10.85;;
84381;SDS011;74572;51.834;5.820;2024-03-08T10:53:15;20.52;;;11.38;;
84381;SDS011;74572;51.834;5.820;2024-03-08T10:55:43;19.35;;;12.70;;
84381;SDS011;74572;51.834;5.820;2024-03-08T10:58:09;18.15;;;12.18;;
84381;SDS011;74572;51.834;5.820;2024-03-08T11:00:37;14.40;;;8.35;;
84381;SDS011;74572;51.834;5.820;2024-03-08T11:03:03;19.83;;;12.88;;
84381;SDS011;74572;51.834;5.820;2024-03-08T11:08:16;15.20;;;10.18;;
84381;SDS011;74572;51.834;5.820;2024-03-08T11:10:52;16.42;;;9.73;;
84381;SDS011;74572;51.834;5.820;2024-03-08T11:13:33;19.23;;;11.23;;
84381;SDS011;74572;51.834;5.820;2024-03-08T11:15:59;17.33;;;8.93;;
84381;SDS011;74572;51.834;5.820;2024-03-08T11:18:26;16.75;;;10.20;;
84381;SDS011;74572;51.834;5.820;2024-03-08T11:20:54;17.85;;;10.15;;
84381;SDS011;74572;51.834;5.820;2024-03-08T11:23:22;17.50;;;10.18;;
84381;SDS011;74572;51.834;5.820;2024-03-08T11:25:48;18.98;;;10.05;;
84381;SDS011;74572;51.834;5.820;2024-03-08T11:28:18;17.00;;;9.88;;
84381;SDS011;74572;51.834;5.820;2024-03-08T11:30:45;15.55;;;8.95;;
84381;SDS011;74572;51.834;5.820;2024-03-08T11:33:24;15.98;;;9.10;;
84381;SDS011;74572;51.834;5.820;2024-03-08T11:35:51;18.75;;;10.18;;
84381;SDS011;74572;51.834;5.820;2024-03-08T11:38:17;18.55;;;9.77;;
84381;SDS011;74572;51.834;5.820;2024-03-08T11:40:45;17.67;;;9.77;;
84381;SDS011;74572;51.834;5.820;2024-03-08T11:43:15;17.20;;;8.63;;
84381;SDS011;74572;51.834;5.820;2024-03-08T11:45:41;17.48;;;9.25;;
84381;SDS011;74572;51.834;5.820;2024-03-08T11:48:07;11.10;;;6.55;;
84381;SDS011;74572;51.834;5.820;2024-03-08T11:50:32;16.33;;;9.10;;
84381;SDS011;74572;51.834;5.820;2024-03-08T11:53:05;17.02;;;9.50;;
84381;SDS011;74572;51.834;5.820;2024-03-08T11:55:31;12.75;;;7.95;;
84381;SDS011;74572;51.834;5.820;2024-03-08T11:58:04;14.70;;;9.23;;
84381;SDS011;74572;51.834;5.820;2024-03-08T12:00:30;16.60;;;9.15;;
84381;SDS011;74572;51.834;5.820;2024-03-08T12:03:06;15.75;;;8.90;;
84381;SDS011;74572;51.834;5.820;2024-03-08T12:05:34;11.13;;;7.32;;
84381;SDS011;74572;51.834;5.820;2024-03-08T12:08:01;14.05;;;8.80;;
84381;SDS011;74572;51.834;5.820;2024-03-08T12:10:27;17.23;;;8.95;;
84381;SDS011;74572;51.834;5.820;2024-03-08T12:12:53;16.48;;;8.80;;
84381;SDS011;74572;51.834;5.820;2024-03-08T12:15:22;15.75;;;7.68;;
84381;SDS011;74572;51.834;5.820;2024-03-08T12:17:52;15.70;;;7.68;;
84381;SDS011;74572;51.834;5.820;2024-03-08T12:20:21;12.07;;;6.80;;
84381;SDS011;74572;51.834;5.820;2024-03-08T12:22:49;15.27;;;8.75;;
84381;SDS011;74572;51.834;5.820;2024-03-08T12:25:17;16.70;;;9.63;;
84381;SDS011;74572;51.834;5.820;2024-03-08T12:27:44;15.90;;;7.85;;
84381;SDS011;74572;51.834;5.820;2024-03-08T12:30:20;16.75;;;9.48;;
84381;SDS011;74572;51.834;5.820;2024-03-08T12:32:59;16.58;;;8.65;;
84381;SDS011;74572;51.834;5.820;2024-03-08T12:35:29;14.68;;;8.30;;
84381;SDS011;74572;51.834;5.820;2024-03-08T12:37:56;7.18;;;4.30;;
84381;SDS011;74572;51.834;5.820;2024-03-08T12:40:26;15.25;;;6.68;;
84381;SDS011;74572;51.834;5.820;2024-03-08T12:42:56;16.77;;;8.55;;
84381;SDS011;74572;51.834;5.820;2024-03-08T12:45:23;14.05;;;8.07;;
84381;SDS011;74572;51.834;5.820;2024-03-08T12:47:49;13.95;;;6.90;;
84381;SDS011;74572;51.834;5.820;2024-03-08T12:50:16;14.70;;;9.00;;
84381;SDS011;74572;51.834;5.820;2024-03-08T12:52:42;14.70;;;8.18;;
84381;SDS011;74572;51.834;5.820;2024-03-08T12:55:07;17.13;;;8.10;;
84381;SDS011;74572;51.834;5.820;2024-03-08T12:57:33;17.27;;;8.57;;
84381;SDS011;74572;51.834;5.820;2024-03-08T13:00:02;15.93;;;8.52;;
84381;SDS011;74572;51.834;5.820;2024-03-08T13:02:29;14.52;;;8.30;;
84381;SDS011;74572;51.834;5.820;2024-03-08T13:04:59;14.75;;;8.55;;
84381;SDS011;74572;51.834;5.820;2024-03-08T13:07:24;11.88;;;7.47;;
84381;SDS011;74572;51.834;5.820;2024-03-08T13:09:53;16.08;;;8.85;;
84381;SDS011;74572;51.834;5.820;2024-03-08T13:12:20;17.88;;;8.98;;
84381;SDS011;74572;51.834;5.820;2024-03-08T13:14:46;14.73;;;8.13;;
84381;SDS011;74572;51.834;5.820;2024-03-08T13:17:12;16.77;;;8.38;;
84381;SDS011;74572;51.834;5.820;2024-03-08T13:19:41;14.85;;;8.02;;
84381;SDS011;74572;51.834;5.820;2024-03-08T13:22:09;17.45;;;8.38;;
84381;SDS011;74572;51.834;5.820;2024-03-08T13:24:41;14.75;;;8.23;;
84381;SDS011;74572;51.834;5.820;2024-03-08T13:27:07;15.55;;;8.68;;
84381;SDS011;74572;51.834;5.820;2024-03-08T13:29:44;17.45;;;9.57;;
84381;SDS011;74572;51.834;5.820;2024-03-08T13:32:11;15.63;;;8.60;;
84381;SDS011;74572;51.834;5.820;2024-03-08T13:34:40;16.67;;;7.88;;
84381;SDS011;74572;51.834;5.820;2024-03-08T13:37:06;15.70;;;9.05;;
84381;SDS011;74572;51.834;5.820;2024-03-08T13:39:31;13.60;;;7.93;;
84381;SDS011;74572;51.834;5.820;2024-03-08T13:42:06;15.57;;;8.57;;
84381;SDS011;74572;51.834;5.820;2024-03-08T13:44:35;16.08;;;8.20;;
84381;SDS011;74572;51.834;5.820;2024-03-08T13:47:01;15.95;;;8.73;;
84381;SDS011;74572;51.834;5.820;2024-03-08T13:49:29;18.23;;;10.88;;
84381;SDS011;74572;51.834;5.820;2024-03-08T13:51:55;17.52;;;8.18;;
84381;SDS011;74572;51.834;5.820;2024-03-08T13:54:22;19.30;;;10.27;;
84381;SDS011;74572;51.834;5.820;2024-03-08T13:56:47;16.92;;;8.05;;
84381;SDS011;74572;51.834;5.820;2024-03-08T13:59:14;17.05;;;9.27;;
84381;SDS011;74572;51.834;5.820;2024-03-08T14:01:40;17.83;;;9.40;;
84381;SDS011;74572;51.834;5.820;2024-03-08T14:04:05;17.30;;;9.60;;
84381;SDS011;74572;51.834;5.820;2024-03-08T14:06:33;16.83;;;9.43;;
84381;SDS011;74572;51.834;5.820;2024-03-08T14:08:59;16.30;;;9.50;;
84381;SDS011;74572;51.834;5.820;2024-03-08T14:11:24;18.80;;;10.57;;
84381;SDS011;74572;51.834;5.820;2024-03-08T14:13:50;22.02;;;11.10;;
84381;SDS011;74572;51.834;5.820;2024-03-08T14:16:16;15.90;;;8.18;;
84381;SDS011;74572;51.834;5.820;2024-03-08T14:18:42;15.27;;;9.40;;
84381;SDS011;74572;51.834;5.820;2024-03-08T14:21:07;12.75;;;7.30;;
84381;SDS011;74572;51.834;5.820;2024-03-08T14:23:36;14.27;;;7.65;;
84381;SDS011;74572;51.834;5.820;2024-03-08T14:26:02;16.60;;;7.97;;
84381;SDS011;74572;51.834;5.820;2024-03-08T14:28:29;19.17;;;9.70;;
84381;SDS011;74572;51.834;5.820;2024-03-08T14:30:54;15.43;;;7.63;;
84381;SDS011;74572;51.834;5.820;2024-03-08T14:33:20;17.65;;;9.38;;
84381;SDS011;74572;51.834;5.820;2024-03-08T14:35:46;17.60;;;8.70;;
84381;SDS011;74572;51.834;5.820;2024-03-08T14:38:12;12.80;;;7.20;;